createdAt,value
2022-12-26T00:02:21.925Z,17.83
2022-12-26T00:04:53.279Z,16.43
2022-12-26T00:07:21.179Z,18.07
2022-12-26T00:09:49.923Z,19.20
2022-12-26T00:12:17.248Z,20.50
2022-12-26T00:14:44.613Z,20.07
2022-12-26T00:17:11.918Z,18.93
2022-12-26T00:19:42.102Z,18.43
2022-12-26T00:22:09.742Z,17.97
2022-12-26T00:24:37.706Z,17.30
2022-12-26T00:27:07.233Z,18.73
2022-12-26T00:29:34.476Z,16.10
2022-12-26T00:32:01.737Z,17.17
2022-12-26T00:34:29.170Z,17.13
2022-12-26T00:36:56.425Z,15.17
2022-12-26T00:39:23.724Z,17.40
2022-12-26T00:41:51.019Z,15.67
2022-12-26T00:44:18.307Z,17.30
2022-12-26T00:46:45.655Z,15.83
2022-12-26T00:49:12.947Z,15.17
2022-12-26T00:51:40.278Z,14.93
2022-12-26T00:54:07.609Z,14.50
2022-12-26T00:56:34.852Z,15.37
2022-12-26T00:59:02.131Z,16.17
2022-12-26T01:01:31.151Z,14.77
2022-12-26T01:03:59.037Z,15.47
2022-12-26T01:06:26.501Z,16.30
2022-12-26T01:08:54.105Z,17.80
2022-12-26T01:11:40.248Z,15.07
2022-12-26T01:14:09.434Z,16.53
2022-12-26T01:16:37.605Z,17.53
2022-12-26T01:19:04.952Z,18.13
2022-12-26T01:21:32.296Z,17.67
2022-12-26T01:23:59.693Z,17.33
2022-12-26T01:26:26.988Z,17.73
2022-12-26T01:28:54.316Z,18.93
2022-12-26T01:31:22.482Z,17.07
2022-12-26T01:33:49.925Z,17.70
2022-12-26T01:36:18.198Z,17.40
2022-12-26T01:38:45.711Z,15.80
2022-12-26T01:41:22.276Z,16.67
2022-12-26T01:43:55.382Z,17.07
2022-12-26T01:46:31.599Z,16.33
2022-12-26T01:49:00.876Z,14.47
2022-12-26T01:51:30.477Z,15.90
2022-12-26T01:54:40.219Z,15.67
2022-12-26T01:56:47.709Z,15.00
2022-12-26T01:59:19.559Z,14.67
2022-12-26T02:01:48.333Z,15.50
2022-12-26T02:04:37.009Z,14.57
2022-12-26T02:07:04.963Z,13.87
2022-12-26T02:09:32.354Z,15.50
2022-12-26T02:12:34.684Z,14.17
2022-12-26T02:14:50.966Z,14.03
2022-12-26T02:17:18.380Z,13.83
2022-12-26T02:19:55.538Z,14.33
2022-12-26T02:22:41.618Z,14.40
2022-12-26T02:25:28.079Z,13.83
2022-12-26T02:27:55.300Z,13.37
2022-12-26T02:30:52.057Z,14.60
2022-12-26T02:33:34.297Z,13.50
2022-12-26T02:36:13.925Z,13.77
2022-12-26T02:38:50.286Z,12.77
2022-12-26T02:41:17.522Z,14.30
2022-12-26T02:44:26.301Z,14.77
2022-12-26T02:47:13.796Z,14.20
2022-12-26T02:50:12.014Z,14.97
2022-12-26T02:53:08.651Z,15.30
2022-12-26T02:55:57.687Z,16.00
2022-12-26T02:58:48.768Z,14.57
2022-12-26T03:01:40.383Z,14.93
2022-12-26T03:04:29.429Z,15.43
2022-12-26T03:07:17.839Z,15.40
2022-12-26T03:10:05.794Z,15.13
2022-12-26T03:12:58.344Z,16.83
2022-12-26T03:15:27.149Z,18.33
2022-12-26T03:17:57.150Z,17.27
2022-12-26T03:20:28.067Z,17.80
2022-12-26T03:23:00.618Z,17.37
2022-12-26T03:25:49.529Z,18.80
2022-12-26T03:28:17.030Z,18.40
2022-12-26T03:30:50.436Z,18.30
2022-12-26T03:33:56.710Z,18.23
2022-12-26T03:36:42.725Z,17.77
2022-12-26T03:39:13.174Z,18.20
2022-12-26T03:42:14.606Z,18.13
2022-12-26T03:45:07.636Z,18.80
2022-12-26T03:48:05.510Z,18.57
2022-12-26T03:50:53.513Z,16.97
2022-12-26T03:53:44.953Z,16.53
2022-12-26T03:56:38.550Z,16.57
2022-12-26T03:59:30.182Z,16.23
2022-12-26T04:02:18.399Z,15.40
2022-12-26T04:05:05.489Z,13.10
2022-12-26T04:07:58.506Z,13.07
2022-12-26T04:10:53.573Z,12.83
2022-12-26T04:13:41.443Z,11.63
2022-12-26T04:16:52.535Z,12.37
2022-12-26T04:19:25.639Z,13.13
2022-12-26T04:22:13.746Z,12.53
2022-12-26T04:25:02.641Z,12.37
2022-12-26T04:27:50.716Z,12.93
2022-12-26T04:30:36.736Z,13.17
2022-12-26T04:33:30.446Z,13.93
2022-12-26T04:36:22.876Z,14.13
2022-12-26T04:39:12.788Z,12.70
2022-12-26T04:41:59.437Z,13.83
2022-12-26T04:44:27.630Z,14.43
2022-12-26T04:46:56.582Z,13.97
2022-12-26T04:49:42.819Z,14.27
2022-12-26T04:52:11.761Z,13.93
2022-12-26T04:54:39.347Z,16.07
2022-12-26T04:57:07.053Z,15.00
2022-12-26T04:59:34.707Z,15.20
2022-12-26T05:02:20.751Z,16.93
2022-12-26T05:05:06.759Z,16.07
2022-12-26T05:07:54.233Z,16.43
2022-12-26T05:10:26.297Z,16.53
2022-12-26T05:12:54.028Z,15.87
2022-12-26T05:15:21.777Z,16.10
2022-12-26T05:18:07.867Z,16.63
2022-12-26T05:20:47.433Z,16.47
2022-12-26T05:23:44.151Z,17.57
2022-12-26T05:26:35.402Z,15.37
2022-12-26T05:29:03.978Z,16.27
2022-12-26T05:31:35.991Z,17.00
2022-12-26T05:34:07.263Z,17.80
2022-12-26T05:36:39.596Z,16.23
2022-12-26T05:39:08.164Z,16.70
2022-12-26T05:41:35.943Z,15.77
2022-12-26T05:44:03.440Z,17.37
2022-12-26T05:46:31.009Z,15.50
2022-12-26T05:48:58.405Z,16.33
2022-12-26T05:51:25.903Z,15.57
2022-12-26T05:53:53.409Z,15.43
2022-12-26T05:56:21.502Z,15.33
2022-12-26T05:58:48.907Z,14.00
2022-12-26T06:01:18.519Z,15.07
2022-12-26T06:03:50.345Z,13.23
2022-12-26T06:06:18.076Z,16.70
2022-12-26T06:08:48.023Z,15.23
2022-12-26T06:11:15.403Z,15.77
2022-12-26T06:13:42.894Z,15.97
2022-12-26T06:16:14.801Z,15.30
2022-12-26T06:18:42.523Z,13.67
2022-12-26T06:21:11.163Z,15.47
2022-12-26T06:23:39.245Z,15.10
2022-12-26T06:26:07.843Z,15.13
2022-12-26T06:28:35.650Z,16.00
2022-12-26T06:31:04.521Z,16.40
2022-12-26T06:33:32.193Z,15.13
2022-12-26T06:36:03.344Z,14.37
2022-12-26T06:38:30.753Z,17.63
2022-12-26T06:40:58.144Z,16.37
2022-12-26T06:43:25.454Z,17.40
2022-12-26T06:45:59.670Z,17.90
2022-12-26T06:48:27.621Z,16.83
2022-12-26T06:50:55.485Z,16.87
2022-12-26T06:53:23.726Z,17.23
2022-12-26T06:55:51.620Z,15.40
2022-12-26T06:58:18.981Z,17.67
2022-12-26T07:00:46.374Z,16.27
2022-12-26T07:03:13.982Z,17.80
2022-12-26T07:05:41.398Z,17.90
2022-12-26T07:08:08.715Z,15.77
2022-12-26T07:10:37.168Z,16.23
2022-12-26T07:13:04.565Z,17.80
2022-12-26T07:15:32.181Z,16.77
2022-12-26T07:17:59.601Z,18.90
2022-12-26T07:20:26.976Z,16.67
2022-12-26T07:22:55.222Z,16.90
2022-12-26T07:25:22.628Z,17.13
2022-12-26T07:27:53.374Z,15.17
2022-12-26T07:30:20.732Z,16.90
2022-12-26T07:32:51.098Z,14.43
2022-12-26T07:35:19.381Z,15.83
2022-12-26T07:37:46.809Z,14.27
2022-12-26T07:40:14.219Z,15.07
2022-12-26T07:42:41.593Z,13.27
2022-12-26T07:45:09.244Z,15.17
2022-12-26T07:47:36.555Z,13.83
2022-12-26T07:50:03.941Z,12.27
2022-12-26T07:52:31.311Z,12.83
2022-12-26T07:54:58.680Z,14.33
2022-12-26T08:00:13.494Z,12.63
2022-12-26T08:02:41.338Z,13.83
2022-12-26T08:05:09.102Z,13.70
2022-12-26T08:07:36.468Z,13.53
2022-12-26T08:10:03.950Z,14.40
2022-12-26T08:12:33.317Z,12.23
2022-12-26T08:15:00.757Z,13.10
2022-12-26T08:17:28.230Z,11.57
2022-12-26T08:19:55.560Z,11.27
2022-12-26T08:22:23.521Z,11.23
2022-12-26T08:24:50.918Z,12.10
2022-12-26T08:27:18.243Z,10.57
2022-12-26T08:29:45.721Z,11.30
2022-12-26T08:32:13.081Z,11.60
2022-12-26T08:34:40.451Z,11.70
2022-12-26T08:37:08.782Z,11.63
2022-12-26T08:39:36.161Z,11.97
2022-12-26T08:42:03.710Z,12.53
2022-12-26T08:44:31.080Z,13.00
2022-12-26T08:46:59.082Z,12.50
2022-12-26T08:49:26.451Z,11.70
2022-12-26T08:51:53.772Z,12.40
2022-12-26T08:54:22.097Z,14.00
2022-12-26T08:56:49.511Z,14.50
2022-12-26T08:59:17.059Z,14.30
2022-12-26T09:01:45.120Z,15.07
2022-12-26T09:04:13.308Z,16.30
2022-12-26T09:06:41.552Z,15.93
2022-12-26T09:09:11.298Z,16.83
2022-12-26T09:11:39.168Z,17.70
2022-12-26T09:14:07.121Z,17.33
2022-12-26T09:16:39.974Z,17.43
2022-12-26T09:19:12.405Z,17.47
2022-12-26T09:21:39.842Z,18.13
2022-12-26T09:24:08.693Z,16.40
2022-12-26T09:26:36.075Z,15.47
2022-12-26T09:29:03.496Z,13.10
2022-12-26T09:31:32.421Z,15.23
2022-12-26T09:34:01.592Z,13.27
2022-12-26T09:36:30.407Z,12.57
2022-12-26T09:38:58.491Z,11.47
2022-12-26T09:41:37.373Z,11.30
2022-12-26T09:44:20.326Z,11.07
2022-12-26T09:46:57.150Z,10.97
2022-12-26T09:49:36.976Z,11.23
2022-12-26T09:52:10.866Z,11.70
2022-12-26T09:54:41.003Z,10.40
2022-12-26T09:57:15.260Z,11.30
2022-12-26T09:59:48.277Z,9.40
2022-12-26T10:02:20.743Z,9.93
2022-12-26T10:04:48.516Z,10.93
2022-12-26T10:07:18.869Z,11.77
2022-12-26T10:09:52.156Z,8.97
2022-12-26T10:12:37.536Z,11.60
2022-12-26T10:15:04.913Z,10.77
2022-12-26T10:17:38.176Z,10.53
2022-12-26T10:20:21.183Z,8.83
2022-12-26T10:22:55.885Z,8.20
2022-12-26T10:25:30.346Z,6.60
2022-12-26T10:28:01.764Z,5.53
2022-12-26T10:30:33.967Z,5.73
2022-12-26T10:33:03.479Z,5.87
2022-12-26T10:35:32.956Z,5.03
2022-12-26T10:38:12.618Z,4.90
2022-12-26T10:40:45.222Z,4.43
2022-12-26T10:43:21.848Z,3.67
2022-12-26T10:46:07.652Z,4.10
2022-12-26T10:48:34.921Z,4.60
2022-12-26T10:51:02.207Z,4.87
2022-12-26T10:53:29.468Z,3.90
2022-12-26T10:55:57.162Z,4.50
2022-12-26T10:58:33.300Z,5.20
2022-12-26T11:01:19.471Z,4.93
2022-12-26T11:03:54.985Z,3.63
2022-12-26T11:06:23.935Z,3.40
2022-12-26T11:08:51.268Z,4.20
2022-12-26T11:11:18.567Z,3.93
2022-12-26T11:14:02.108Z,4.33
2022-12-26T11:16:31.512Z,3.73
2022-12-26T11:18:59.327Z,3.60
2022-12-26T11:21:28.194Z,3.00
2022-12-26T11:24:21.743Z,3.33
2022-12-26T11:26:49.134Z,2.90
2022-12-26T11:29:16.461Z,2.90
2022-12-26T11:32:04.051Z,2.80
2022-12-26T11:34:34.607Z,2.37
2022-12-26T11:37:02.033Z,2.80
2022-12-26T11:39:34.073Z,2.23
2022-12-26T11:42:01.734Z,2.80
2022-12-26T11:44:34.114Z,3.20
2022-12-26T11:47:12.308Z,2.93
2022-12-26T11:49:58.361Z,3.40
2022-12-26T11:52:39.541Z,2.53
2022-12-26T11:55:25.356Z,2.90
2022-12-26T11:58:06.495Z,3.27
2022-12-26T12:00:35.012Z,3.07
2022-12-26T12:03:02.929Z,2.60
2022-12-26T12:05:37.635Z,3.10
2022-12-26T12:08:17.094Z,3.20
2022-12-26T12:11:03.174Z,2.70
2022-12-26T12:13:40.424Z,3.10
2022-12-26T12:16:21.165Z,3.03
2022-12-26T12:19:04.439Z,3.00
2022-12-26T12:21:40.548Z,2.80
2022-12-26T12:24:13.925Z,2.87
2022-12-26T12:26:57.568Z,2.80
2022-12-26T12:29:33.137Z,2.57
2022-12-26T12:32:03.422Z,2.60
2022-12-26T12:34:45.292Z,2.70
2022-12-26T12:37:31.450Z,2.77
2022-12-26T12:39:58.613Z,2.40
2022-12-26T12:42:39.903Z,2.43
2022-12-26T12:45:20.997Z,2.23
2022-12-26T12:47:56.382Z,2.63
2022-12-26T12:50:36.403Z,2.20
2022-12-26T12:53:10.068Z,2.43
2022-12-26T12:55:59.935Z,1.70
2022-12-26T12:58:36.364Z,1.80
2022-12-26T13:01:06.985Z,2.30
2022-12-26T13:04:09.870Z,2.47
2022-12-26T13:06:41.709Z,0.73
2022-12-26T13:09:17.473Z,0.80
2022-12-26T13:11:56.915Z,0.43
2022-12-26T13:14:26.550Z,0.80
2022-12-26T13:17:06.555Z,0.90
2022-12-26T13:19:46.282Z,1.10
2022-12-26T13:22:26.191Z,1.40
2022-12-26T13:24:57.421Z,1.23
2022-12-26T13:27:32.215Z,1.67
2022-12-26T13:29:59.494Z,1.97
2022-12-26T13:32:31.613Z,1.80
2022-12-26T13:35:00.126Z,2.93
2022-12-26T13:37:39.873Z,1.73
2022-12-26T13:40:07.518Z,2.10
2022-12-26T13:43:19.679Z,2.10
2022-12-26T13:45:55.155Z,3.73
2022-12-26T13:48:22.404Z,2.87
2022-12-26T13:50:55.576Z,2.03
2022-12-26T13:53:27.123Z,2.47
2022-12-26T13:55:54.997Z,1.97
2022-12-26T13:58:28.176Z,2.30
2022-12-26T14:01:00.598Z,2.67
2022-12-26T14:03:33.834Z,2.60
2022-12-26T14:06:11.784Z,1.43
2022-12-26T14:08:52.994Z,0.80
2022-12-26T14:11:41.530Z,0.83
2022-12-26T14:14:21.871Z,1.87
2022-12-26T14:17:08.232Z,0.90
2022-12-26T14:19:54.054Z,1.23
2022-12-26T14:22:38.472Z,1.23
2022-12-26T14:25:24.679Z,1.20
2022-12-26T14:27:59.522Z,2.53
2022-12-26T14:30:34.820Z,2.13
2022-12-26T14:33:17.313Z,1.57
2022-12-26T14:36:03.366Z,1.20
2022-12-26T14:38:36.441Z,0.87
2022-12-26T14:41:08.338Z,3.27
2022-12-26T14:43:36.721Z,2.10
2022-12-26T14:46:37.500Z,1.70
2022-12-26T14:49:26.421Z,2.50
2022-12-26T14:52:16.497Z,2.87
2022-12-26T14:54:50.776Z,2.13
2022-12-26T14:57:37.265Z,1.70
2022-12-26T15:00:16.877Z,2.23
2022-12-26T15:02:46.816Z,2.50
2022-12-26T15:05:16.976Z,2.07
2022-12-26T15:07:47.203Z,2.40
2022-12-26T15:10:26.654Z,1.93
2022-12-26T15:13:12.682Z,1.73
2022-12-26T15:15:39.974Z,1.60
2022-12-26T15:18:17.651Z,2.63
2022-12-26T15:20:54.162Z,2.30
2022-12-26T15:23:46.345Z,5.00
2022-12-26T15:26:25.525Z,2.07
2022-12-26T15:29:11.599Z,1.93
2022-12-26T15:31:42.959Z,3.07
2022-12-26T15:34:29.015Z,2.30
2022-12-26T15:37:00.458Z,2.77
2022-12-26T15:39:43.412Z,4.77
2022-12-26T15:42:22.824Z,2.30
2022-12-26T15:45:16.603Z,2.90
2022-12-26T15:47:50.049Z,2.37
2022-12-26T15:50:40.494Z,2.60
2022-12-26T15:53:21.695Z,3.20
2022-12-26T15:56:08.406Z,2.30
2022-12-26T15:58:35.672Z,2.53
2022-12-26T16:01:03.060Z,3.03
2022-12-26T16:03:52.265Z,2.90
2022-12-26T16:06:22.500Z,2.73
2022-12-26T16:09:04.548Z,3.43
2022-12-26T16:11:43.238Z,3.47
2022-12-26T16:17:16.171Z,3.67
2022-12-26T16:19:44.527Z,3.67
2022-12-26T16:22:43.911Z,3.17
2022-12-26T16:25:19.203Z,3.50
2022-12-26T16:27:47.393Z,4.27
2022-12-26T16:30:17.212Z,9.63
2022-12-26T16:32:44.897Z,5.93
2022-12-26T16:35:20.117Z,4.13
2022-12-26T16:37:47.909Z,4.53
2022-12-26T16:40:15.810Z,3.53
2022-12-26T16:42:44.028Z,3.50
2022-12-26T16:45:19.921Z,4.50
2022-12-26T16:47:48.414Z,3.03
2022-12-26T16:50:17.278Z,3.57
2022-12-26T16:52:46.921Z,3.07
2022-12-26T16:55:28.015Z,3.00
2022-12-26T16:57:57.037Z,5.53
2022-12-26T17:00:25.032Z,3.70
2022-12-26T17:02:53.916Z,4.47
2022-12-26T17:05:36.150Z,6.38
2022-12-26T17:08:04.327Z,8.02
2022-12-26T17:10:33.599Z,10.10
2022-12-26T17:13:02.422Z,11.13
2022-12-26T17:15:31.461Z,6.83
2022-12-26T17:18:00.421Z,4.50
2022-12-26T17:20:32.863Z,14.70
2022-12-26T17:23:00.215Z,5.00
2022-12-26T17:25:31.197Z,3.80
2022-12-26T17:28:17.847Z,4.20
2022-12-26T17:30:46.249Z,6.10
2022-12-26T17:33:16.264Z,4.70
2022-12-26T17:36:38.061Z,5.03
2022-12-26T17:38:33.185Z,5.70
2022-12-26T17:41:03.659Z,5.70
2022-12-26T17:43:32.351Z,5.90
2022-12-26T17:46:00.139Z,6.23
2022-12-26T17:48:27.658Z,4.80
2022-12-26T17:50:57.047Z,4.73
2022-12-26T17:53:31.318Z,5.20
2022-12-26T17:56:00.606Z,4.10
2022-12-26T17:58:29.180Z,4.50
2022-12-26T18:00:56.672Z,3.67
2022-12-26T18:03:24.077Z,3.93
2022-12-26T18:05:51.505Z,5.10
2022-12-26T18:08:31.636Z,3.97
2022-12-26T18:10:59.755Z,3.40
2022-12-26T18:13:27.348Z,3.40
2022-12-26T18:15:56.260Z,2.93
2022-12-26T18:18:27.597Z,5.23
2022-12-26T18:20:55.046Z,4.73
2022-12-26T18:23:23.040Z,3.97
2022-12-26T18:25:54.436Z,4.03
2022-12-26T18:28:22.195Z,3.77
2022-12-26T18:30:49.652Z,4.77
2022-12-26T18:33:17.006Z,5.87
2022-12-26T18:35:44.980Z,4.80
2022-12-26T18:38:14.334Z,2.53
2022-12-26T18:40:43.558Z,5.07
2022-12-26T18:43:11.018Z,3.20
2022-12-26T18:45:39.102Z,3.90
2022-12-26T18:48:07.626Z,4.27
2022-12-26T18:50:35.661Z,5.27
2022-12-26T18:53:03.414Z,3.57
2022-12-26T18:55:30.789Z,3.67
2022-12-26T18:57:58.273Z,3.17
2022-12-26T19:00:26.128Z,3.63
2022-12-26T19:02:55.548Z,3.23
2022-12-26T19:05:26.209Z,3.10
2022-12-26T19:07:54.366Z,3.70
2022-12-26T19:10:22.959Z,4.13
2022-12-26T19:12:50.728Z,3.10
2022-12-26T19:15:18.429Z,3.53
2022-12-26T19:17:45.841Z,3.83
2022-12-26T19:20:21.621Z,3.30
2022-12-26T19:22:50.059Z,2.80
2022-12-26T19:25:18.355Z,2.77
2022-12-26T19:27:45.831Z,3.43
2022-12-26T19:30:13.485Z,3.80
2022-12-26T19:32:40.977Z,3.33
2022-12-26T19:35:08.572Z,4.20
2022-12-26T19:37:36.046Z,4.47
2022-12-26T19:40:03.833Z,4.90
2022-12-26T19:42:34.558Z,3.50
2022-12-26T19:45:02.230Z,3.40
2022-12-26T19:47:29.580Z,2.80
2022-12-26T19:49:56.974Z,3.47
2022-12-26T19:52:24.835Z,3.10
2022-12-26T19:54:52.220Z,3.70
2022-12-26T19:57:19.729Z,4.57
2022-12-26T19:59:47.117Z,3.87
2022-12-26T20:02:14.669Z,3.20
2022-12-26T20:04:42.193Z,3.80
2022-12-26T20:07:09.544Z,3.63
2022-12-26T20:09:37.006Z,4.93
2022-12-26T20:12:04.916Z,3.90
2022-12-26T20:14:32.989Z,4.15
2022-12-26T20:17:06.236Z,3.60
2022-12-26T20:19:34.043Z,3.57
2022-12-26T20:22:01.481Z,3.97
2022-12-26T20:24:29.078Z,5.87
2022-12-26T20:26:56.553Z,3.13
2022-12-26T20:29:24.000Z,4.03
2022-12-26T20:31:55.036Z,2.60
2022-12-26T20:34:22.563Z,3.07
2022-12-26T20:36:49.996Z,3.73
2022-12-26T20:39:18.496Z,1.67
2022-12-26T20:41:46.163Z,3.00
2022-12-26T20:44:13.906Z,2.93
2022-12-26T20:46:42.179Z,3.03
2022-12-26T20:49:09.958Z,2.30
2022-12-26T20:51:38.735Z,3.50
2022-12-26T20:54:07.029Z,3.93
2022-12-26T20:56:34.847Z,2.63
2022-12-26T20:59:03.263Z,3.57
2022-12-26T21:01:31.008Z,2.37
2022-12-26T21:03:58.792Z,4.33
2022-12-26T21:06:28.871Z,4.23
2022-12-26T21:08:57.692Z,3.63
2022-12-26T21:11:27.157Z,3.50
2022-12-26T21:13:58.742Z,2.67
2022-12-26T21:16:28.247Z,2.80
2022-12-26T21:18:55.976Z,4.03
2022-12-26T21:21:27.702Z,3.17
2022-12-26T21:23:56.826Z,2.60
2022-12-26T21:26:24.923Z,3.47
2022-12-26T21:28:59.852Z,2.90
2022-12-26T21:31:27.690Z,4.03
2022-12-26T21:33:55.938Z,3.27
2022-12-26T21:36:23.411Z,3.40
2022-12-26T21:38:50.783Z,3.33
2022-12-26T21:41:18.159Z,3.40
2022-12-26T21:43:45.707Z,2.73
2022-12-26T21:46:17.412Z,2.77
2022-12-26T21:48:47.006Z,3.50
2022-12-26T21:51:15.519Z,2.37
2022-12-26T21:53:43.559Z,3.87
2022-12-26T21:56:11.773Z,3.47
2022-12-26T21:58:57.645Z,2.47
2022-12-26T22:01:25.903Z,4.40
2022-12-26T22:04:12.303Z,4.65
2022-12-26T22:06:40.169Z,4.53
2022-12-26T22:09:08.012Z,4.20
2022-12-26T22:11:54.138Z,2.73
2022-12-26T22:14:22.006Z,4.43
2022-12-26T22:16:53.264Z,3.07
2022-12-26T22:19:20.674Z,3.60
2022-12-26T22:21:48.039Z,3.37
2022-12-26T22:24:15.354Z,2.60
2022-12-26T22:26:42.727Z,3.17
2022-12-26T22:29:10.099Z,2.67
2022-12-26T22:31:38.631Z,2.63
2022-12-26T22:34:07.421Z,2.03
2022-12-26T22:36:35.392Z,3.07
2022-12-26T22:39:02.860Z,2.77
2022-12-26T22:41:30.423Z,2.70
2022-12-26T22:43:57.743Z,2.40
2022-12-26T22:46:25.239Z,3.07
2022-12-26T22:48:52.786Z,2.07
2022-12-26T22:51:21.714Z,2.63
2022-12-26T22:53:49.301Z,2.40
2022-12-26T22:56:16.639Z,4.13
2022-12-26T22:58:43.921Z,2.87
2022-12-26T23:01:15.332Z,2.67
2022-12-26T23:03:42.689Z,2.67
2022-12-26T23:06:23.778Z,3.40
2022-12-26T23:08:52.856Z,3.37
2022-12-26T23:11:20.424Z,3.00
2022-12-26T23:13:48.001Z,2.43
2022-12-26T23:16:27.945Z,2.73
2022-12-26T23:19:17.130Z,2.30
2022-12-26T23:21:48.622Z,2.77
2022-12-26T23:24:23.615Z,1.90
2022-12-26T23:26:52.661Z,3.20
2022-12-26T23:29:39.983Z,2.67
2022-12-26T23:32:08.000Z,2.77
2022-12-26T23:34:35.376Z,3.27
2022-12-26T23:37:03.733Z,2.23
2022-12-26T23:39:30.988Z,2.70
2022-12-26T23:41:58.248Z,2.60
2022-12-26T23:44:25.474Z,1.63
2022-12-26T23:46:52.800Z,2.53
2022-12-26T23:49:20.248Z,3.70
2022-12-26T23:51:47.571Z,4.13
2022-12-26T23:54:14.967Z,3.23
2022-12-26T23:56:42.223Z,3.03
2022-12-26T23:59:09.707Z,3.80
